Southern Utah University
, Cedar City
Last Weather Update:09/29/2011 11:00:00 PM
Date
ETo
ETc
Rain
Irrigation
Req
Temp
Max
Temp
Min
Temp
Avg
Avg RH
Avg Wind
Avg Solar
inches
inches
incehs
inches
F
F
F
%
%
watts/m2
08/01/2011 0.21" 0.19" 0.01" 0.18" 85.5° 60.1° 71.3° 61.8% 3.3 MPH 275.6w/m2
08/02/2011 0.19" 0.17" 0.01" 0.16" 85.9° 59.3° 72.5° 53.0% 2.7 MPH 255.0w/m2
08/03/2011 0.18" 0.16" 0.02" 0.14" 85.7° 62.1° 72.0° 48.8% 3.0 MPH 233.1w/m2
08/04/2011 0.28" 0.24" 0.00" 0.24" 87.9° 58.9° 74.5° 39.9% 5.6 MPH 320.4w/m2
08/05/2011 0.29" 0.25" 0.00" 0.25" 88.2° 59.0° 75.1° 20.0% 5.4 MPH 332.8w/m2
08/06/2011 0.29" 0.25" 0.00" 0.25" 86.4° 54.9° 72.5° 17.2% 5.3 MPH 343.6w/m2
08/07/2011 0.28" 0.24" 0.00" 0.24" 87.3° 55.7° 73.3° 16.1% 4.5 MPH 341.4w/m2
08/08/2011 0.27" 0.23" 0.00" 0.23" 89.1° 57.6° 74.9° 17.3% 4.1 MPH 334.0w/m2
08/09/2011 0.28" 0.24" 0.00" 0.24" 88.9° 58.9° 75.1° 17.6% 4.4 MPH 340.7w/m2
08/10/2011 0.27" 0.23" 0.00" 0.23" 88.7° 61.3° 76.5° 24.6% 4.4 MPH 326.9w/m2
08/11/2011 0.26" 0.21" 0.00" 0.21" 87.9° 60.5° 76.0° 24.9% 3.9 MPH 328.1w/m2
08/12/2011 0.25" 0.20" 0.00" 0.20" 90.7° 58.6° 75.7° 22.8% 2.9 MPH 321.8w/m2
08/13/2011 0.24" 0.19" 0.00" 0.19" 89.0° 62.0° 75.6° 27.7% 3.8 MPH 277.4w/m2
08/14/2011 0.23" 0.18" 0.00" 0.18" 87.5° 66.5° 77.2° 34.2% 3.8 MPH 272.3w/m2
08/15/2011 0.29" 0.23" 0.00" 0.23" 88.8° 68.5° 78.7° 30.1% 6.2 MPH 317.9w/m2
08/16/2011 0.25" 0.20" 0.00" 0.20" 89.2° 60.1° 75.3° 22.2% 3.4 MPH 317.7w/m2
08/17/2011 0.25" 0.20" 0.00" 0.20" 91.9° 60.6° 77.9° 25.5% 3.5 MPH 312.4w/m2
08/18/2011 0.25" 0.19" 0.00" 0.19" 90.7° 65.0° 79.3° 29.0% 3.9 MPH 286.4w/m2
08/19/2011 0.27" 0.21" 0.00" 0.21" 87.5° 68.5° 78.8° 29.1% 5.8 MPH 304.7w/m2
08/20/2011 0.25" 0.19" 0.00" 0.19" 87.2° 66.7° 76.5° 34.6% 4.3 MPH 304.9w/m2
08/21/2011 0.25" 0.19" 0.00" 0.19" 88.5° 61.8° 76.3° 26.1% 4.0 MPH 305.0w/m2
08/22/2011 0.25" 0.19" 0.00" 0.19" 89.9° 63.3° 78.1° 25.5% 3.6 MPH 302.7w/m2
08/23/2011 0.23" 0.18" 0.00" 0.18" 93.2° 64.0° 79.8° 22.9% 2.9 MPH 297.0w/m2
08/24/2011 0.19" 0.14" 0.00" 0.14" 94.3° 65.7° 80.8° 26.5% 2.3 MPH 237.2w/m2
08/25/2011 0.24" 0.18" 0.00" 0.18" 93.5° 72.4° 81.9° 27.1% 4.2 MPH 257.8w/m2
08/26/2011 0.16" 0.11" 0.17" -0.02" 88.3° 69.3° 76.7° 39.8% 2.7 MPH 187.1w/m2
08/27/2011 0.20" 0.15" 0.00" 0.15" 89.6° 63.7° 77.0° 42.5% 2.4 MPH 256.8w/m2
08/28/2011 0.17" 0.12" 0.28" -0.10" 87.9° 62.1° 73.0° 53.2% 2.5 MPH 218.5w/m2
08/29/2011 0.20" 0.14" 0.00" 0.14" 88.5° 61.4° 73.8° 45.4% 3.5 MPH 244.6w/m2
08/30/2011 0.26" 0.18" 0.00" 0.18" 88.2° 62.5° 76.1° 35.6% 5.1 MPH 282.0w/m2
08/31/2011 0.31" 0.21" 0.00" 0.21" 88.3° 62.3° 77.1° 24.0% 8.2 MPH 286.6w/m2
Totals: 7.53" 6.02" 0.49" 5.62" 94.3° 54.9° 76.1° 31.1% 4.0 MPH 291.1w/m2